ADDS METAR Data INFO
IDs: Format: Raw Decoded Include TAF

Data at: 2221 UTC 24 Jun 2018

KC09 242215Z AUTO 00000KT 10SM SCT060 28/17 A2996 RMK AO2 T02840174
KC09 242155Z AUTO 00000KT 10SM CLR 28/17 A2996 RMK AO2 T02790168
KC09 242135Z AUTO 00000KT 10SM CLR 28/17 A2996 RMK AO2 T02780167
KC09 242115Z AUTO 00000KT 10SM CLR 28/17 A2996 RMK AO2 T02760168
KC09 242055Z AUTO 00000KT 10SM CLR 28/17 A2997 RMK AO2 T02770171
KC09 242035Z AUTO 00000KT 10SM CLR 28/17 A2997 RMK AO2 T02750167
KC09 242015Z AUTO 00000KT 10SM CLR 27/17 A2998 RMK AO2 T02740172
KC09 241955Z AUTO 28004KT 10SM CLR 28/18 A2998 RMK AO2 T02780176
KC09 241935Z AUTO 00000KT 10SM CLR 28/17 A2998 RMK AO2 T02800166
KC09 241915Z AUTO 00000KT 10SM CLR 28/16 A2998 RMK AO2 T02750162
KC09 241855Z AUTO 00000KT 10SM CLR 27/16 A2998 RMK AO2 T02740162
KC09 241835Z AUTO 00000KT 10SM SCT045 27/16 A2997 RMK AO2 T02740159
KC09 241815Z AUTO 00000KT 10SM CLR 28/17 A2997 RMK AO2 T02750172
KC09 241755Z AUTO 00000KT 10SM CLR 27/16 A2997 RMK AO2 T02680161 10272 20178
KC09 241735Z AUTO 00000KT 10SM CLR 27/17 A2997 RMK AO2 T02710168
KC09 241715Z AUTO 07005KT 10SM CLR 27/18 A2996 RMK AO2 T02690176
KC09 241655Z AUTO 00000KT 10SM CLR 27/17 A2995 RMK AO2 T02680169
KC09 241635Z AUTO 00000KT 10SM CLR 27/17 A2994 RMK AO2 T02650166
KC09 241615Z AUTO 00000KT 10SM CLR 26/17 A2993 RMK AO2 T02640165
KC09 241555Z AUTO 36003KT 10SM CLR 26/17 A2993 RMK AO2 T02600166
KC09 241535Z AUTO 00000KT 10SM CLR 25/17 A2993 RMK AO2 T02530167
KC09 241515Z AUTO 00000KT 10SM CLR 25/18 A2994 RMK AO2 T02530176
KC09 241455Z AUTO 00000KT 10SM CLR 25/17 A2994 RMK AO2 T02460174
KC09 241435Z AUTO 29004KT 10SM CLR 24/18 A2994 RMK AO2 T02440177
KC09 241415Z AUTO 32004KT 10SM CLR 24/18 A2994 RMK AO2 T02370182
KC09 241355Z AUTO 30004KT 10SM CLR 23/19 A2994 RMK AO2 T02330190
KC09 241335Z AUTO 29005KT 10SM CLR 22/19 A2994 RMK AO2 T02230190
KC09 241315Z AUTO 29004KT 10SM CLR 21/19 A2993 RMK AO2 T02140192
KC09 241255Z AUTO 23004KT 10SM CLR 20/19 A2992 RMK AO2 T02010188
KC09 241235Z AUTO 00000KT 7SM CLR 19/18 A2990 RMK AO2 T01900183
KC09 241215Z AUTO 00000KT 5SM BR CLR 18/18 A2989 RMK AO2 T01820177
KC09 241155Z AUTO 00000KT 3SM BR CLR 18/17 A2989 RMK AO2 T01770173 10195 20160
KC09 241135Z AUTO 00000KT 2SM BR CLR 17/17 A2987 RMK AO2 T01680165
KC09 241115Z AUTO 00000KT 2 1/2SM BR CLR 17/16 A2986 RMK AO2 T01650161
KC09 241055Z AUTO 26003KT 2SM BR CLR 16/16 A2987 RMK AO2 T01620158
KC09 241035Z AUTO 24003KT 2SM BR CLR 16/16 A2987 RMK AO2 T01620158
KC09 241015Z AUTO 00000KT 3SM BR CLR 16/16 A2986 RMK AO2 T01620159
KC09 240955Z AUTO 25003KT 3SM BR CLR 17/16 A2986 RMK AO2 T01650161
KC09 240935Z AUTO 00000KT 2 1/2SM BR CLR 16/16 A2985 RMK AO2 T01630160
KC09 240915Z AUTO 00000KT 3SM BR CLR 17/16 A2984 RMK AO2 T01660162
KC09 240855Z AUTO 00000KT 2 1/2SM BR CLR 17/16 A2983 RMK AO2 T01660162
KC09 240835Z AUTO 00000KT 5SM BR CLR 18/17 A2983 RMK AO2 T01750171
KC09 240815Z AUTO 28003KT 5SM BR CLR 18/17 A2983 RMK AO2 T01770172
KC09 240755Z AUTO 00000KT 5SM BR CLR 18/17 A2982 RMK AO2 T01770171
KC09 240735Z AUTO 26003KT 7SM CLR 18/18 A2983 RMK AO2 T01830177
KC09 240715Z AUTO 27005KT 7SM CLR 19/18 A2983 RMK AO2 T01850180
KC09 240655Z AUTO 26003KT 7SM SCT120 19/18 A2983 RMK AO2 T01880182
KC09 240635Z AUTO 25003KT 10SM CLR 19/19 A2983 RMK AO2 T01920185
KC09 240615Z AUTO 24003KT 7SM SCT120 19/19 A2983 RMK AO2 T01920185
KC09 240555Z AUTO 00000KT 10SM SCT095 OVC110 20/19 A2983 RMK AO2 T01950186 10221 20195 402450170
KC09 240535Z AUTO 25003KT 10SM BKN095 OVC120 20/19 A2983 RMK AO2 T01950186
KC09 240515Z AUTO 26003KT 10SM SCT085 OVC120 20/19 A2982 RMK AO2 T01960187
KC09 240455Z AUTO 25003KT 10SM BKN085 OVC110 20/19 A2982 RMK AO2 T01970187
KC09 240435Z AUTO 25003KT 10SM BKN085 OVC100 20/19 A2981 RMK AO2 T01990187
KC09 240415Z AUTO 24004KT 10SM OVC085 20/19 A2981 RMK AO2 T02000187
KC09 240355Z AUTO 25004KT 10SM OVC085 20/19 A2981 RMK AO2 T02010186
KC09 240335Z AUTO 24004KT 10SM OVC085 20/19 A2981 RMK AO2 T02000187
KC09 240315Z AUTO 00000KT 10SM OVC085 20/19 A2981 RMK AO2 T02000188
KC09 240255Z AUTO 23003KT 10SM OVC085 20/19 A2980 RMK AO2 T02020187
KC09 240235Z AUTO 23003KT 10SM BKN070 OVC085 21/19 A2980 RMK AO2 T02050186
KC09 240215Z AUTO 24004KT 10SM SCT070 OVC085 21/19 A2979 RMK AO2 T02060186
KC09 240155Z AUTO 24004KT 10SM OVC070 21/19 A2979 RMK AO2 T02050189
KC09 240135Z AUTO 23003KT 10SM SCT070 OVC085 21/19 A2978 RMK AO2 T02050190
KC09 240115Z AUTO 21003KT 10SM SCT070 OVC085 21/19 A2978 RMK AO2 T02060190
KC09 240055Z AUTO 24004KT 10SM SCT070 SCT085 21/19 A2978 RMK AO2 T02100186
KC09 240035Z AUTO 23004KT 10SM SCT070 BKN085 22/19 A2978 RMK AO2 T02150185
KC09 240015Z AUTO 23004KT 10SM OVC085 22/18 A2977 RMK AO2 T02180182
KC09 232355Z AUTO 22005KT 10SM OVC075 22/18 A2977 RMK AO2 T02210179 10245 20221
KC09 232335Z AUTO 22005KT 10SM OVC075 23/18 A2977 RMK AO2 T02250179
KC09 232315Z AUTO 21005KT 10SM OVC075 22/18 A2976 RMK AO2 T02230181
KC09 232255Z AUTO 22005KT 10SM OVC075 23/18 A2977 RMK AO2 T02250182
KC09 232235Z AUTO 21006KT 10SM OVC065 23/18 A2977 RMK AO2 T02250180
KC09 232215Z AUTO 23006KT 10SM OVC065 23/18 A2977 RMK AO2 T02270183
KC09 232155Z AUTO 21006KT 10SM OVC065 23/19 A2977 RMK AO2 T02310185
KC09 232135Z AUTO 22005KT 10SM OVC065 23/17 A2977 RMK AO2 T02320174
KC09 232115Z AUTO 26004KT 10SM SCT030 SCT038 OVC065 23/17 A2977 RMK AO2 T02340170
KC09 232055Z AUTO 22004KT 10SM SCT028 SCT038 OVC065 24/18 A2976 RMK AO2 T02410177
KC09 232035Z AUTO 00000KT 10SM OVC055 24/18 A2976 RMK AO2 T02440177
KC09 232015Z AUTO 22004KT 10SM OVC055 23/18 A2976 RMK AO2 T02330176
KC09 231955Z AUTO 23004KT 10SM OVC055 23/18 A2976 RMK AO2 T02330176
KC09 231935Z AUTO 21005KT 10SM OVC055 23/17 A2977 RMK AO2 T02340170
KC09 231915Z AUTO 00000KT 10SM SCT036 SCT048 OVC055 24/17 A2976 RMK AO2 T02350167
KC09 231855Z AUTO 00000KT 10SM SCT036 OVC047 23/16 A2976 RMK AO2 T02330159
KC09 231835Z AUTO 17003KT 10SM SCT035 BKN045 BKN065 23/16 A2976 RMK AO2 T02340163
KC09 231815Z AUTO 00000KT 10SM SCT029 BKN042 OVC060 24/16 A2976 RMK AO2 T02350164
KC09 231755Z AUTO 21003KT 10SM SCT025 SCT031 BKN060 24/17 A2976 RMK AO2 T02360172 10236 20172
KC09 231735Z AUTO 00000KT 10SM BKN023 BKN029 23/17 A2976 RMK AO2 T02320169
KC09 231715Z AUTO 00000KT 10SM SCT023 SCT060 22/17 A2975 RMK AO2 T02240166
KC09 231655Z AUTO 26004KT 10SM SCT022 BKN060 22/17 A2976 RMK AO2 T02210172
KC09 231635Z AUTO 00000KT 10SM BKN060 22/17 A2976 RMK AO2 T02170165
KC09 231615Z AUTO 00000KT 10SM OVC060 21/17 A2976 RMK AO2 T02100166
KC09 231555Z AUTO 22003KT 10SM OVC060 20/17 A2976 RMK AO2 T02040167
KC09 231535Z AUTO 00000KT 10SM SCT049 OVC060 20/16 A2976 RMK AO2 T01990163
KC09 231515Z AUTO 00000KT 10SM OVC047 20/17 A2977 RMK AO2 T01960165
KC09 231455Z AUTO 26003KT 10SM OVC043 19/16 A2977 RMK AO2 T01900161
KC09 231435Z AUTO 00000KT 10SM OVC041 19/16 A2978 RMK AO2 T01880157
KC09 231415Z AUTO 26003KT 10SM BKN041 OVC049 19/16 A2978 RMK AO2 T01890159
KC09 231355Z AUTO 00000KT 10SM OVC049 19/16 A2977 RMK AO2 T01880157
KC09 231335Z AUTO 00000KT 10SM OVC047 19/16 A2977 RMK AO2 T01880158
KC09 231315Z AUTO 00000KT 10SM OVC047 19/16 A2976 RMK AO2 T01850157
KC09 231255Z AUTO 00000KT 10SM OVC047 18/16 A2976 RMK AO2 T01810158
KC09 231235Z AUTO 00000KT 10SM SCT012 SCT024 OVC047 18/16 A2973 RMK AO2 T01780159
KC09 231215Z AUTO 00000KT 10SM BKN012 BKN024 OVC049 17/16 A2973 RMK AO2 T01740160
KC09 231155Z AUTO 00000KT 10SM SCT012 BKN017 OVC049 17/16 A2973 RMK AO2 70038 T01710161 10175 20170
KC09 231135Z AUTO 00000KT 7SM BKN013 OVC017 17/16 A2973 RMK AO2 T01700161
KC09 231115Z AUTO 00000KT 7SM OVC011 17/16 A2973 RMK AO2 T01700162
KC09 231055Z AUTO 00000KT 5SM BR OVC011 17/17 A2973 RMK AO2 T01710165
KC09 231035Z AUTO 31003KT 5SM BR OVC011 17/17 A2973 RMK AO2 T01730167